createdAt,value
2022-07-26T00:01:22.141Z,2.33
2022-07-26T00:03:52.135Z,4.05
2022-07-26T00:06:20.059Z,1.40
2022-07-26T00:08:48.035Z,2.08
2022-07-26T00:11:15.978Z,2.33
2022-07-26T00:13:43.875Z,1.63
2022-07-26T00:16:13.381Z,1.27
2022-07-26T00:18:41.468Z,1.52
2022-07-26T00:21:09.531Z,1.67
2022-07-26T00:23:39.623Z,1.45
2022-07-26T00:26:07.483Z,3.30
2022-07-26T00:28:35.393Z,2.58
2022-07-26T00:31:04.541Z,2.35
2022-07-26T00:33:34.087Z,1.77
2022-07-26T00:36:02.153Z,2.08
2022-07-26T00:38:30.040Z,2.13
2022-07-26T00:40:58.403Z,1.77
2022-07-26T00:43:26.195Z,2.80
2022-07-26T00:45:54.076Z,2.03
2022-07-26T00:48:21.928Z,1.73
2022-07-26T00:50:51.459Z,1.73
2022-07-26T00:53:20.625Z,3.10
2022-07-26T00:55:49.480Z,2.65
2022-07-26T00:58:17.917Z,2.55
2022-07-26T01:00:46.420Z,1.50
2022-07-26T01:03:14.487Z,1.60
2022-07-26T01:05:43.647Z,1.63
2022-07-26T01:08:12.898Z,2.03
2022-07-26T01:10:41.004Z,1.10
2022-07-26T01:13:09.476Z,1.92
2022-07-26T01:15:37.464Z,1.90
2022-07-26T01:18:05.447Z,4.03
2022-07-26T01:20:33.305Z,1.95
2022-07-26T01:23:02.928Z,1.48
2022-07-26T01:25:32.176Z,2.13
2022-07-26T01:28:00.277Z,2.22
2022-07-26T01:30:28.399Z,2.53
2022-07-26T01:32:56.271Z,2.05
2022-07-26T01:35:24.183Z,3.20
2022-07-26T01:37:57.220Z,1.63
2022-07-26T01:40:26.584Z,1.50
2022-07-26T01:42:54.485Z,3.97
2022-07-26T01:45:22.440Z,2.47
2022-07-26T01:47:51.026Z,1.85
2022-07-26T01:50:19.294Z,3.33
2022-07-26T01:52:47.166Z,2.60
2022-07-26T01:55:15.051Z,1.80
2022-07-26T01:57:45.962Z,1.92
2022-07-26T02:00:15.029Z,1.85
2022-07-26T02:02:42.930Z,2.10
2022-07-26T02:05:11.244Z,2.30
2022-07-26T02:07:42.827Z,2.58
2022-07-26T02:10:14.514Z,2.63
2022-07-26T02:12:44.314Z,2.42
2022-07-26T02:15:13.522Z,2.13
2022-07-26T02:17:41.582Z,1.48
2022-07-26T02:20:10.757Z,2.22
2022-07-26T02:22:38.594Z,3.25
2022-07-26T02:25:07.356Z,3.13
2022-07-26T02:27:35.228Z,1.67
2022-07-26T02:30:05.028Z,2.08
2022-07-26T02:32:32.970Z,2.80
2022-07-26T02:35:00.894Z,2.63
2022-07-26T02:37:28.817Z,4.20
2022-07-26T02:39:56.682Z,2.78
2022-07-26T02:42:24.531Z,2.20
2022-07-26T02:44:54.017Z,2.03
2022-07-26T02:47:23.263Z,3.40
2022-07-26T02:49:51.197Z,3.10
2022-07-26T02:52:19.186Z,4.45
2022-07-26T02:54:47.050Z,2.22
2022-07-26T02:57:14.887Z,2.47
2022-07-26T02:59:42.819Z,2.35
2022-07-26T03:02:10.635Z,3.08
2022-07-26T03:04:39.886Z,2.53
2022-07-26T03:07:07.856Z,2.67
2022-07-26T03:09:35.666Z,3.08
2022-07-26T03:12:03.906Z,2.10
2022-07-26T03:14:31.756Z,3.30
2022-07-26T03:16:59.556Z,2.38
2022-07-26T03:19:27.497Z,1.75
2022-07-26T03:21:56.716Z,2.75
2022-07-26T03:24:24.584Z,2.47
2022-07-26T03:26:52.626Z,2.80
2022-07-26T03:29:20.611Z,2.72
2022-07-26T03:31:48.454Z,3.25
2022-07-26T03:34:16.355Z,3.13
2022-07-26T03:36:44.342Z,5.70
2022-07-26T03:39:13.649Z,3.72
2022-07-26T03:41:41.730Z,4.70
2022-07-26T03:44:10.024Z,3.15
2022-07-26T03:46:38.184Z,3.30
2022-07-26T03:49:06.095Z,3.45
2022-07-26T03:51:34.271Z,3.30
2022-07-26T03:54:02.157Z,3.03
2022-07-26T03:56:31.944Z,2.58
2022-07-26T03:59:01.634Z,3.45
2022-07-26T04:01:30.246Z,2.75
2022-07-26T04:03:58.280Z,3.25
2022-07-26T04:06:26.129Z,3.90
2022-07-26T04:08:54.059Z,3.72
2022-07-26T04:11:22.121Z,3.38
2022-07-26T04:16:23.592Z,3.92
2022-07-26T04:18:51.802Z,4.25
2022-07-26T04:21:19.752Z,3.47
2022-07-26T04:23:51.125Z,2.95
2022-07-26T04:26:19.909Z,3.05
2022-07-26T04:28:47.946Z,3.83
2022-07-26T04:31:17.541Z,3.55
2022-07-26T04:33:45.489Z,4.05
2022-07-26T04:36:13.458Z,3.10
2022-07-26T04:38:41.325Z,4.43
2022-07-26T04:41:09.209Z,3.83
2022-07-26T04:43:37.341Z,5.07
2022-07-26T04:46:05.326Z,3.88
2022-07-26T04:48:34.691Z,3.03
2022-07-26T04:51:02.865Z,4.13
2022-07-26T04:53:30.753Z,3.30
2022-07-26T04:55:58.649Z,3.22
2022-07-26T04:58:26.522Z,3.10
2022-07-26T05:01:09.500Z,4.85
2022-07-26T05:03:39.868Z,4.18
2022-07-26T05:06:08.354Z,3.25
2022-07-26T05:08:36.258Z,4.15
2022-07-26T05:11:04.697Z,4.32
2022-07-26T05:13:32.924Z,3.83
2022-07-26T05:16:01.697Z,3.75
2022-07-26T05:18:31.881Z,3.65
2022-07-26T05:21:15.562Z,2.80
2022-07-26T05:23:44.015Z,4.30
2022-07-26T05:26:12.275Z,3.42
2022-07-26T05:28:40.556Z,4.97
2022-07-26T05:31:08.962Z,2.63
2022-07-26T05:33:36.892Z,4.47
2022-07-26T05:36:05.403Z,3.97
2022-07-26T05:38:34.908Z,4.72
2022-07-26T05:41:03.053Z,5.85
2022-07-26T05:43:40.942Z,4.68
2022-07-26T05:46:10.790Z,4.78
2022-07-26T05:48:38.989Z,6.85
2022-07-26T05:51:07.156Z,4.72
2022-07-26T05:53:36.448Z,4.95
2022-07-26T05:56:04.742Z,4.75
2022-07-26T05:58:32.628Z,5.35
2022-07-26T06:01:01.011Z,4.93
2022-07-26T06:03:30.073Z,3.30
2022-07-26T06:05:59.582Z,5.00
2022-07-26T06:08:28.226Z,5.45
2022-07-26T06:10:57.844Z,3.47
2022-07-26T06:13:25.881Z,5.80
2022-07-26T06:15:53.863Z,5.60
2022-07-26T06:18:22.110Z,4.57
2022-07-26T06:20:51.448Z,3.80
2022-07-26T06:23:33.554Z,4.95
2022-07-26T06:26:04.971Z,5.55
2022-07-26T06:28:33.095Z,4.75
2022-07-26T06:31:00.987Z,4.13
2022-07-26T06:33:28.866Z,4.25
2022-07-26T06:35:56.866Z,5.15
2022-07-26T06:38:24.945Z,4.63
2022-07-26T06:40:52.805Z,4.25
2022-07-26T06:43:22.271Z,4.13
2022-07-26T06:45:50.632Z,4.45
2022-07-26T06:48:18.657Z,5.78
2022-07-26T06:50:46.640Z,5.10
2022-07-26T06:53:14.472Z,6.05
2022-07-26T06:55:42.829Z,6.47
2022-07-26T06:58:10.924Z,5.55
2022-07-26T07:00:40.260Z,6.60
2022-07-26T07:03:08.265Z,5.18
2022-07-26T07:05:36.222Z,6.18
2022-07-26T07:08:04.911Z,4.75
2022-07-26T07:10:35.220Z,4.97
2022-07-26T07:13:03.999Z,4.22
2022-07-26T07:15:31.932Z,4.57
2022-07-26T07:18:01.297Z,4.90
2022-07-26T07:20:29.485Z,5.45
2022-07-26T07:22:57.542Z,5.88
2022-07-26T07:25:30.882Z,6.05
2022-07-26T07:27:59.557Z,3.45
2022-07-26T07:30:28.282Z,4.50
2022-07-26T07:32:56.989Z,4.63
2022-07-26T07:35:31.684Z,4.53
2022-07-26T07:38:00.563Z,5.47
2022-07-26T07:40:28.435Z,4.50
2022-07-26T07:42:58.341Z,5.65
2022-07-26T07:45:26.326Z,4.13
2022-07-26T07:47:54.236Z,5.45
2022-07-26T07:50:22.189Z,7.05
2022-07-26T07:52:58.025Z,5.18
2022-07-26T07:55:46.246Z,4.80
2022-07-26T07:58:15.694Z,4.95
2022-07-26T08:00:45.635Z,5.40
2022-07-26T08:03:17.934Z,7.53
2022-07-26T08:05:49.310Z,4.13
2022-07-26T08:08:22.594Z,6.78
2022-07-26T08:10:52.924Z,5.68
2022-07-26T08:13:22.070Z,4.00
2022-07-26T08:15:50.965Z,5.22
2022-07-26T08:18:21.643Z,5.78
2022-07-26T08:20:51.272Z,5.53
2022-07-26T08:23:21.977Z,4.07
2022-07-26T08:26:00.682Z,9.75
2022-07-26T08:28:46.723Z,5.22
2022-07-26T08:31:15.229Z,4.80
2022-07-26T08:33:46.294Z,7.25
2022-07-26T08:36:16.052Z,6.10
2022-07-26T08:38:47.741Z,4.32
2022-07-26T08:41:16.579Z,5.13
2022-07-26T08:43:51.169Z,4.68
2022-07-26T08:46:25.347Z,5.95
2022-07-26T08:48:54.908Z,6.88
2022-07-26T08:51:25.039Z,4.88
2022-07-26T08:54:04.115Z,5.32
2022-07-26T08:56:33.287Z,4.25
2022-07-26T08:59:05.192Z,4.45
2022-07-26T09:01:33.438Z,4.50
2022-07-26T09:04:30.844Z,4.95
2022-07-26T09:07:03.301Z,4.25
2022-07-26T09:09:33.808Z,4.75
2022-07-26T09:12:15.729Z,4.95
2022-07-26T09:14:46.610Z,4.93
2022-07-26T09:17:16.437Z,4.70
2022-07-26T09:19:44.516Z,6.18
2022-07-26T09:22:14.676Z,4.40
2022-07-26T09:24:45.692Z,5.20
2022-07-26T09:27:16.926Z,3.75
2022-07-26T09:29:49.645Z,3.30
2022-07-26T09:32:19.928Z,4.22
2022-07-26T09:34:52.978Z,4.32
2022-07-26T09:37:34.929Z,4.53
2022-07-26T09:40:07.256Z,4.47
2022-07-26T09:45:04.693Z,4.28
2022-07-26T09:47:40.364Z,4.18
2022-07-26T09:50:13.301Z,4.00
2022-07-26T09:52:42.240Z,4.90
2022-07-26T09:55:13.316Z,4.72
2022-07-26T09:57:41.452Z,4.05
2022-07-26T10:00:10.745Z,3.35
2022-07-26T10:02:38.896Z,4.45
2022-07-26T10:05:07.809Z,5.70
2022-07-26T10:07:36.224Z,4.13
2022-07-26T10:10:11.364Z,3.67
2022-07-26T10:12:44.174Z,4.35
2022-07-26T10:15:40.717Z,4.03
2022-07-26T10:18:10.161Z,4.68
2022-07-26T10:20:51.249Z,3.67
2022-07-26T10:23:36.694Z,2.80
2022-07-26T10:26:06.203Z,3.20
2022-07-26T10:28:37.803Z,2.88
2022-07-26T10:31:30.482Z,3.90
2022-07-26T10:34:01.390Z,3.22
2022-07-26T10:36:33.483Z,4.03
2022-07-26T10:39:05.272Z,4.22
2022-07-26T10:41:36.247Z,4.28
2022-07-26T10:44:25.402Z,2.97
2022-07-26T10:47:18.381Z,2.38
2022-07-26T10:49:57.640Z,2.45
2022-07-26T10:52:27.823Z,3.42
2022-07-26T10:55:13.457Z,3.55
2022-07-26T10:57:43.620Z,2.78
2022-07-26T11:00:20.121Z,4.05
2022-07-26T11:02:55.697Z,3.00
2022-07-26T11:05:28.849Z,2.70
2022-07-26T11:08:01.352Z,3.97
2022-07-26T11:10:32.748Z,3.33
2022-07-26T11:13:19.453Z,4.03
2022-07-26T11:15:51.332Z,2.58
2022-07-26T11:18:25.113Z,2.45
2022-07-26T11:20:55.375Z,2.78
2022-07-26T11:23:32.398Z,2.10
2022-07-26T11:26:12.225Z,1.55
2022-07-26T11:28:55.609Z,3.03
2022-07-26T11:31:50.769Z,2.85
2022-07-26T11:34:22.089Z,1.67
2022-07-26T11:36:52.123Z,2.03
2022-07-26T11:39:23.933Z,2.55
2022-07-26T11:41:57.405Z,2.88
2022-07-26T11:44:26.348Z,1.95
2022-07-26T11:46:57.830Z,1.30
2022-07-26T11:50:00.500Z,2.35
2022-07-26T11:52:25.053Z,1.33
2022-07-26T11:54:54.141Z,1.73
2022-07-26T11:57:22.272Z,1.60
2022-07-26T11:59:51.539Z,1.88
2022-07-26T12:02:23.265Z,2.05
2022-07-26T12:05:11.439Z,1.63
2022-07-26T12:07:39.744Z,1.75
2022-07-26T12:10:08.661Z,1.88
2022-07-26T12:12:36.902Z,1.65
2022-07-26T12:15:06.914Z,1.80
2022-07-26T12:17:36.624Z,2.50
2022-07-26T12:20:15.719Z,2.13
2022-07-26T12:22:54.491Z,1.67
2022-07-26T12:25:26.988Z,3.22
2022-07-26T12:27:55.538Z,1.45
2022-07-26T12:30:24.163Z,1.70
2022-07-26T12:32:55.248Z,2.15
2022-07-26T12:35:32.314Z,1.33
2022-07-26T12:38:01.026Z,2.72
2022-07-26T12:40:31.171Z,0.70
2022-07-26T12:43:02.801Z,1.40
2022-07-26T12:45:33.001Z,1.77
2022-07-26T12:48:03.755Z,1.15
2022-07-26T12:50:32.895Z,1.75
2022-07-26T12:53:03.184Z,0.90
2022-07-26T12:55:31.851Z,1.75
2022-07-26T12:58:00.755Z,2.40
2022-07-26T13:00:29.905Z,1.55
2022-07-26T13:02:58.370Z,1.65
2022-07-26T13:05:27.744Z,1.45
2022-07-26T13:07:55.958Z,2.15
2022-07-26T13:10:39.636Z,1.23
2022-07-26T13:13:07.792Z,1.30
2022-07-26T13:15:37.160Z,0.95
2022-07-26T13:18:08.102Z,0.68
2022-07-26T13:20:39.294Z,1.42
2022-07-26T13:23:11.542Z,0.82
2022-07-26T13:25:41.204Z,1.10
2022-07-26T13:28:09.898Z,1.75
2022-07-26T13:30:39.412Z,2.17
2022-07-26T13:33:08.258Z,1.50
2022-07-26T13:35:39.339Z,1.27
2022-07-26T13:38:09.576Z,0.75
2022-07-26T13:40:37.601Z,1.75
2022-07-26T13:43:06.045Z,2.10
2022-07-26T13:45:34.193Z,1.27
2022-07-26T13:48:02.305Z,0.70
2022-07-26T13:50:30.317Z,1.40
2022-07-26T13:52:59.858Z,1.00
2022-07-26T13:55:27.821Z,0.85
2022-07-26T13:57:57.864Z,1.60
2022-07-26T14:00:27.468Z,2.00
2022-07-26T14:02:56.407Z,2.10
2022-07-26T14:05:25.137Z,1.27
2022-07-26T14:07:53.866Z,1.60
2022-07-26T14:10:24.033Z,1.58
2022-07-26T14:12:53.463Z,1.88
2022-07-26T14:15:23.389Z,2.35
2022-07-26T14:17:52.446Z,1.48
2022-07-26T14:20:21.010Z,2.03
2022-07-26T14:22:53.209Z,2.22
2022-07-26T14:27:51.124Z,1.45
2022-07-26T14:30:19.716Z,1.17
2022-07-26T14:32:48.168Z,1.85
2022-07-26T14:35:17.556Z,1.52
2022-07-26T14:37:46.263Z,2.40
2022-07-26T14:40:16.641Z,1.25
2022-07-26T14:42:45.250Z,1.20
2022-07-26T14:45:15.538Z,1.33
2022-07-26T14:47:44.238Z,2.10
2022-07-26T14:50:13.537Z,2.85
2022-07-26T14:52:42.990Z,2.83
2022-07-26T14:55:11.787Z,2.45
2022-07-26T14:57:40.670Z,3.80
2022-07-26T15:00:11.348Z,2.92
2022-07-26T15:02:42.319Z,2.78
2022-07-26T15:05:11.219Z,2.03
2022-07-26T15:07:39.741Z,2.83
2022-07-26T15:10:09.696Z,1.02
2022-07-26T15:12:37.793Z,2.05
2022-07-26T15:15:07.431Z,1.80
2022-07-26T15:17:36.182Z,1.13
2022-07-26T15:20:06.920Z,1.60
2022-07-26T15:22:35.560Z,1.95
2022-07-26T15:25:03.520Z,2.00
2022-07-26T15:27:31.463Z,1.48
2022-07-26T15:30:04.147Z,2.40
2022-07-26T15:32:35.310Z,2.60
2022-07-26T15:35:03.376Z,2.17
2022-07-26T15:37:32.927Z,1.70
2022-07-26T15:40:01.464Z,1.63
2022-07-26T15:42:32.047Z,1.15
2022-07-26T15:47:54.813Z,1.67
2022-07-26T15:50:26.310Z,2.50
2022-07-26T15:52:55.834Z,1.55
2022-07-26T15:55:23.862Z,2.00
2022-07-26T15:57:51.924Z,1.33
2022-07-26T16:00:20.352Z,1.65
2022-07-26T16:02:48.360Z,2.70
2022-07-26T16:05:17.258Z,1.60
2022-07-26T16:07:46.235Z,1.35
2022-07-26T16:10:16.327Z,1.63
2022-07-26T16:12:44.429Z,0.95
2022-07-26T16:15:13.163Z,1.63
2022-07-26T16:17:41.291Z,2.30
2022-07-26T16:20:10.035Z,2.17
2022-07-26T16:22:41.030Z,2.30
2022-07-26T16:25:12.780Z,2.27
2022-07-26T16:27:43.838Z,3.43
2022-07-26T16:30:13.343Z,2.28
2022-07-26T16:32:41.559Z,2.45
2022-07-26T16:35:10.580Z,1.75
2022-07-26T16:37:38.620Z,1.40
2022-07-26T16:40:08.601Z,1.08
2022-07-26T16:42:36.705Z,1.88
2022-07-26T16:45:06.786Z,2.58
2022-07-26T16:47:34.851Z,1.23
2022-07-26T16:50:03.002Z,1.88
2022-07-26T16:52:30.933Z,2.88
2022-07-26T16:54:59.082Z,1.58
2022-07-26T16:57:27.933Z,3.65
2022-07-26T16:59:55.815Z,2.10
2022-07-26T17:02:25.304Z,2.30
2022-07-26T17:04:55.850Z,3.17
2022-07-26T17:07:25.780Z,2.00
2022-07-26T17:09:55.172Z,1.58
2022-07-26T17:12:23.357Z,3.47
2022-07-26T17:14:51.681Z,3.10
2022-07-26T17:17:19.811Z,2.10
2022-07-26T17:19:49.313Z,1.58
2022-07-26T17:22:18.014Z,1.52
2022-07-26T17:24:46.113Z,3.65
2022-07-26T17:27:14.136Z,2.08
2022-07-26T17:29:42.124Z,2.33
2022-07-26T17:32:10.739Z,1.38
2022-07-26T17:34:39.567Z,1.67
2022-07-26T17:37:10.185Z,2.05
2022-07-26T17:39:50.749Z,2.22
2022-07-26T17:42:21.657Z,1.92
2022-07-26T17:44:49.824Z,1.65
2022-07-26T17:47:28.903Z,2.67
2022-07-26T17:50:14.394Z,2.38
2022-07-26T17:52:50.347Z,4.88
2022-07-26T17:55:19.659Z,3.42
2022-07-26T17:57:49.708Z,4.47
2022-07-26T18:00:19.806Z,4.35
2022-07-26T18:02:47.805Z,3.83
2022-07-26T18:05:18.257Z,3.40
2022-07-26T18:07:46.606Z,4.22
2022-07-26T18:10:16.031Z,3.50
2022-07-26T18:12:44.037Z,3.95
2022-07-26T18:15:12.721Z,3.83
2022-07-26T18:17:40.875Z,2.58
2022-07-26T18:20:10.019Z,3.55
2022-07-26T18:22:38.482Z,3.95
2022-07-26T18:25:07.663Z,4.50
2022-07-26T18:27:37.151Z,4.22
2022-07-26T18:30:06.435Z,4.10
2022-07-26T18:32:35.217Z,3.40
2022-07-26T18:35:03.370Z,4.25
2022-07-26T18:37:31.728Z,5.05
2022-07-26T18:40:00.973Z,3.92
2022-07-26T18:42:29.038Z,3.58
2022-07-26T18:44:58.383Z,2.80
2022-07-26T18:47:26.505Z,3.67
2022-07-26T18:49:54.583Z,4.18
2022-07-26T18:52:32.218Z,3.22
2022-07-26T18:55:02.574Z,3.88
2022-07-26T18:57:30.589Z,2.88
2022-07-26T18:59:59.948Z,2.33
2022-07-26T19:02:27.935Z,2.75
2022-07-26T19:04:56.328Z,2.67
2022-07-26T19:07:24.471Z,3.85
2022-07-26T19:09:57.842Z,3.40
2022-07-26T19:12:26.946Z,3.30
2022-07-26T19:14:54.939Z,2.95
2022-07-26T19:17:24.380Z,3.95
2022-07-26T19:19:52.616Z,2.85
2022-07-26T19:22:23.068Z,2.67
2022-07-26T19:24:51.317Z,2.63
2022-07-26T19:27:19.929Z,2.85
2022-07-26T19:29:48.702Z,2.75
2022-07-26T19:32:16.846Z,4.30
2022-07-26T19:34:46.250Z,3.70
2022-07-26T19:37:19.751Z,4.07
2022-07-26T19:39:48.560Z,2.92
2022-07-26T19:42:18.362Z,2.72
2022-07-26T19:44:47.215Z,4.32
2022-07-26T19:47:15.323Z,2.55
2022-07-26T19:49:43.546Z,3.10
2022-07-26T19:52:12.912Z,4.53
2022-07-26T19:54:41.226Z,2.08
2022-07-26T19:57:09.320Z,4.55
2022-07-26T19:59:37.360Z,2.30
2022-07-26T20:02:05.808Z,2.50
2022-07-26T20:04:33.949Z,4.78
2022-07-26T20:07:01.895Z,2.85
2022-07-26T20:09:31.592Z,2.72
2022-07-26T20:12:00.736Z,3.53
2022-07-26T20:14:28.776Z,2.28
2022-07-26T20:16:58.252Z,2.38
2022-07-26T20:19:28.082Z,3.08
2022-07-26T20:21:56.304Z,2.38
2022-07-26T20:24:24.372Z,3.13
2022-07-26T20:26:54.159Z,3.15
2022-07-26T20:29:22.412Z,2.85
2022-07-26T20:31:50.723Z,2.78
2022-07-26T20:34:18.941Z,2.90
2022-07-26T20:36:47.389Z,3.17
2022-07-26T20:39:15.881Z,2.95
2022-07-26T20:41:43.958Z,3.00
2022-07-26T20:44:14.783Z,3.45
2022-07-26T20:46:42.760Z,2.75
2022-07-26T20:49:11.344Z,4.10
2022-07-26T20:51:39.823Z,4.38
2022-07-26T20:54:08.675Z,2.30
2022-07-26T20:56:37.193Z,2.72
2022-07-26T20:59:05.733Z,4.43
2022-07-26T21:01:35.432Z,2.47
2022-07-26T21:04:03.599Z,2.83
2022-07-26T21:06:33.190Z,2.83
2022-07-26T21:09:08.861Z,4.05
2022-07-26T21:11:38.549Z,3.28
2022-07-26T21:14:06.808Z,1.75
2022-07-26T21:16:36.557Z,4.15
2022-07-26T21:19:05.923Z,2.13
2022-07-26T21:21:37.016Z,2.75
2022-07-26T21:24:06.727Z,2.28
2022-07-26T21:26:35.222Z,2.30
2022-07-26T21:29:03.382Z,2.40
2022-07-26T21:31:31.658Z,3.72
2022-07-26T21:34:01.239Z,2.38
2022-07-26T21:36:29.436Z,3.13
2022-07-26T21:38:59.173Z,2.67
2022-07-26T21:41:27.127Z,3.15
2022-07-26T21:43:55.187Z,1.65
2022-07-26T21:46:23.217Z,2.70
2022-07-26T21:48:51.387Z,2.78
2022-07-26T21:51:20.883Z,2.75
2022-07-26T21:53:48.987Z,2.70
2022-07-26T21:56:17.251Z,3.40
2022-07-26T21:58:45.353Z,2.45
2022-07-26T22:01:15.526Z,3.17
2022-07-26T22:03:44.225Z,2.60
2022-07-26T22:06:13.050Z,2.03
2022-07-26T22:08:42.506Z,2.60
2022-07-26T22:11:10.672Z,2.10
2022-07-26T22:13:38.873Z,2.55
2022-07-26T22:16:08.239Z,2.67
2022-07-26T22:18:36.257Z,3.70
2022-07-26T22:21:04.862Z,2.47
2022-07-26T22:23:33.466Z,2.50
2022-07-26T22:26:04.705Z,3.00
2022-07-26T22:28:34.405Z,2.70
2022-07-26T22:31:02.575Z,3.22
2022-07-26T22:33:30.646Z,1.95
2022-07-26T22:35:58.620Z,3.38
2022-07-26T22:38:26.617Z,2.75
2022-07-26T22:40:54.648Z,2.08
2022-07-26T22:43:24.240Z,2.47
2022-07-26T22:45:52.244Z,1.73
2022-07-26T22:48:20.311Z,3.30
2022-07-26T22:50:48.383Z,1.75
2022-07-26T22:53:16.430Z,2.38
2022-07-26T22:55:44.396Z,1.52
2022-07-26T22:58:12.464Z,2.28
2022-07-26T23:00:42.275Z,2.40
2022-07-26T23:03:20.048Z,2.03
2022-07-26T23:05:50.372Z,2.10
2022-07-26T23:11:08.299Z,1.75
2022-07-26T23:13:36.287Z,2.70
2022-07-26T23:16:06.502Z,3.08
2022-07-26T23:18:35.217Z,2.90
2022-07-26T23:21:04.204Z,2.30
2022-07-26T23:23:32.646Z,1.52
2022-07-26T23:26:01.084Z,2.38
2022-07-26T23:28:37.094Z,1.83
2022-07-26T23:31:11.901Z,2.35
2022-07-26T23:33:53.534Z,2.45
2022-07-26T23:36:26.247Z,1.83
2022-07-26T23:38:55.147Z,2.88
2022-07-26T23:41:23.480Z,3.55
2022-07-26T23:43:51.983Z,2.88
2022-07-26T23:46:21.713Z,2.90
2022-07-26T23:48:50.477Z,3.13
2022-07-26T23:51:19.500Z,2.28
2022-07-26T23:53:48.343Z,1.42
2022-07-26T23:56:16.896Z,3.10
2022-07-26T23:58:45.572Z,2.08
